Sydney River, Canada
Current Conditions -  °F | °C
As of 2:39 AM on Saturday 25 Oct 2014 (Local Time) from CYQY Reporting Station
Rain Showers Rain Showers  
Wind Chill: 54°   Ceiling: 400
Heat Index: 54°   Visibility: 0.75mi
Dew Point: 54°   Wind: 6mph
Humidity: 100%   Direction: 360°N
Pressure: 29.34"   Gusts: NA
Location:  46.12°N, 60.22°W
Report Text: CYQY 250539Z 36005KT 3/4SM -SHRA BR BKN004 OVC007 12/12 A2934 RMK ST6ST2 SLP934 DENSITY ALT 500FT
Loading
Personal Weather Stations






























Interactive Weather Map
Tropical Storm Tracking
New forecast layout! Learn more

10-Day Weather Forecast

Advertisements
Track Severe Weather on mobile